createdAt,value
2018-12-17T00:01:57.966Z,23.57
2018-12-17T00:04:26.501Z,25.90
2018-12-17T00:06:55.038Z,28.63
2018-12-17T00:09:23.565Z,26.00
2018-12-17T00:11:52.066Z,29.73
2018-12-17T00:14:20.590Z,25.60
2018-12-17T00:16:49.126Z,26.77
2018-12-17T00:19:17.649Z,23.83
2018-12-17T00:21:46.394Z,25.20
2018-12-17T00:24:14.911Z,25.90
2018-12-17T00:26:43.425Z,25.70
2018-12-17T00:29:11.963Z,31.00
2018-12-17T00:31:40.499Z,27.53
2018-12-17T00:34:09.058Z,24.50
2018-12-17T00:36:37.826Z,25.27
2018-12-17T00:39:07.802Z,25.43
2018-12-17T00:41:36.434Z,24.83
2018-12-17T00:44:04.970Z,24.10
2018-12-17T00:46:33.491Z,25.60
2018-12-17T00:49:02.034Z,25.53
2018-12-17T00:51:30.672Z,23.93
2018-12-17T00:53:59.198Z,24.50
2018-12-17T00:56:27.749Z,27.40
2018-12-17T00:58:56.315Z,28.63
2018-12-17T01:01:25.178Z,25.13
2018-12-17T01:03:53.717Z,24.90
2018-12-17T01:06:22.254Z,25.13
2018-12-17T01:08:50.794Z,26.27
2018-12-17T01:11:19.375Z,24.93
2018-12-17T01:13:47.894Z,25.50
2018-12-17T01:16:16.445Z,25.83
2018-12-17T01:18:45.004Z,27.23
2018-12-17T01:21:13.521Z,26.20
2018-12-17T01:23:42.137Z,28.07
2018-12-17T01:26:10.878Z,27.97
2018-12-17T01:28:39.746Z,27.40
2018-12-17T01:31:08.289Z,24.83
2018-12-17T01:33:36.813Z,26.10
2018-12-17T01:36:05.352Z,24.40
2018-12-17T01:38:33.841Z,25.77
2018-12-17T01:41:02.505Z,25.67
2018-12-17T01:43:31.040Z,26.10
2018-12-17T01:45:59.549Z,26.23
2018-12-17T01:48:28.077Z,27.17
2018-12-17T01:50:56.627Z,25.10
2018-12-17T01:53:25.132Z,28.37
2018-12-17T01:55:53.668Z,27.37
2018-12-17T01:58:29.030Z,26.90
2018-12-17T02:00:52.892Z,30.07
2018-12-17T02:03:21.418Z,29.93
2018-12-17T02:05:49.957Z,31.40
2018-12-17T02:08:18.496Z,30.33
2018-12-17T02:10:47.025Z,29.10
2018-12-17T02:13:15.520Z,28.13
2018-12-17T02:15:44.048Z,30.50
2018-12-17T02:18:12.596Z,29.53
2018-12-17T02:20:41.129Z,30.30
2018-12-17T02:23:09.641Z,31.03
2018-12-17T02:25:38.261Z,30.77
2018-12-17T02:28:06.784Z,31.47
2018-12-17T02:30:35.306Z,29.63
2018-12-17T02:33:03.816Z,29.23
2018-12-17T02:35:32.359Z,28.73
2018-12-17T02:38:01.005Z,29.13
2018-12-17T02:40:29.557Z,28.47
2018-12-17T02:42:58.092Z,28.97
2018-12-17T02:45:26.644Z,27.00
2018-12-17T02:47:55.185Z,26.67
2018-12-17T02:50:23.943Z,27.10
2018-12-17T02:52:52.495Z,28.80
2018-12-17T02:55:21.023Z,28.77
2018-12-17T02:57:49.542Z,28.27
2018-12-17T03:00:18.059Z,26.13
2018-12-17T03:02:47.295Z,26.50
2018-12-17T03:05:15.913Z,28.30
2018-12-17T03:07:44.455Z,26.47
2018-12-17T03:10:12.986Z,27.80
2018-12-17T03:12:41.479Z,27.50
2018-12-17T03:15:10.016Z,28.63
2018-12-17T03:17:38.547Z,25.57
2018-12-17T03:20:07.278Z,25.53
2018-12-17T03:22:35.786Z,28.13
2018-12-17T03:25:04.442Z,26.07
2018-12-17T03:27:32.967Z,25.73
2018-12-17T03:30:01.527Z,28.13
2018-12-17T03:32:30.127Z,26.30
2018-12-17T03:34:58.659Z,25.57
2018-12-17T03:37:27.214Z,26.17
2018-12-17T03:39:55.727Z,23.63
2018-12-17T03:42:24.255Z,26.93
2018-12-17T03:44:53.235Z,26.23
2018-12-17T03:47:21.766Z,26.63
2018-12-17T03:49:50.315Z,27.80
2018-12-17T03:52:18.830Z,28.20
2018-12-17T03:54:47.330Z,26.33
2018-12-17T03:57:15.859Z,27.00
2018-12-17T03:59:44.540Z,24.37
2018-12-17T04:02:13.046Z,26.60
2018-12-17T04:04:41.771Z,25.80
2018-12-17T04:07:10.263Z,27.53
2018-12-17T04:09:38.814Z,27.13
2018-12-17T04:12:07.342Z,25.63
2018-12-17T04:14:35.858Z,30.30
2018-12-17T04:17:04.372Z,31.13
2018-12-17T04:19:32.900Z,31.63
2018-12-17T04:22:01.423Z,29.47
2018-12-17T04:24:29.954Z,28.60
2018-12-17T04:26:58.470Z,28.63
2018-12-17T04:29:27.125Z,27.37
2018-12-17T04:31:55.691Z,27.33
2018-12-17T04:34:26.003Z,28.23
2018-12-17T04:36:54.542Z,28.53
2018-12-17T04:39:23.077Z,25.57
2018-12-17T04:41:51.616Z,29.00
2018-12-17T04:44:20.110Z,30.07
2018-12-17T04:46:48.647Z,28.07
2018-12-17T04:49:17.966Z,27.80
2018-12-17T04:51:46.521Z,28.53
2018-12-17T04:54:15.242Z,28.27
2018-12-17T04:56:44.598Z,29.07
2018-12-17T04:59:14.775Z,28.40
2018-12-17T05:01:43.549Z,26.33
2018-12-17T05:04:12.090Z,29.70
2018-12-17T05:06:40.633Z,29.03
2018-12-17T05:09:09.181Z,28.50
2018-12-17T05:11:37.743Z,26.77
2018-12-17T05:14:06.278Z,27.27
2018-12-17T05:16:34.789Z,28.63
2018-12-17T05:19:03.417Z,29.47
2018-12-17T05:21:31.938Z,28.53
2018-12-17T05:24:00.446Z,27.40
2018-12-17T05:26:28.962Z,29.03
2018-12-17T05:28:57.473Z,27.33
2018-12-17T05:31:25.978Z,28.67
2018-12-17T05:33:54.474Z,30.53
2018-12-17T05:36:22.983Z,38.00
2018-12-17T05:38:51.486Z,38.47
2018-12-17T05:41:20.043Z,38.60
2018-12-17T05:43:48.564Z,34.00
2018-12-17T05:46:17.076Z,33.60
2018-12-17T05:48:45.566Z,33.77
2018-12-17T05:51:14.073Z,32.43
2018-12-17T05:53:42.620Z,34.33
2018-12-17T05:56:11.121Z,32.67
2018-12-17T05:58:39.628Z,32.10
2018-12-17T06:01:08.118Z,32.23
2018-12-17T06:03:36.628Z,33.93
2018-12-17T06:06:05.151Z,31.40
2018-12-17T06:08:33.628Z,32.80
2018-12-17T06:11:02.199Z,31.93
2018-12-17T06:13:30.712Z,34.20
2018-12-17T06:15:59.268Z,48.47
2018-12-17T06:18:27.841Z,53.67
2018-12-17T06:20:56.776Z,46.80
2018-12-17T06:23:25.987Z,40.77
2018-12-17T06:25:54.467Z,39.50
2018-12-17T06:28:22.985Z,37.17
2018-12-17T06:30:51.773Z,33.93
2018-12-17T06:33:20.331Z,37.37
2018-12-17T06:35:48.824Z,35.60
2018-12-17T06:38:17.363Z,35.70
2018-12-17T06:40:45.887Z,37.17
2018-12-17T06:43:14.670Z,35.57
2018-12-17T06:45:43.213Z,38.07
2018-12-17T06:48:17.072Z,39.47
2018-12-17T06:50:42.268Z,39.53
2018-12-17T06:53:10.780Z,43.50
2018-12-17T06:55:39.599Z,38.90
2018-12-17T06:58:08.360Z,38.37
2018-12-17T07:00:36.880Z,38.50
2018-12-17T07:03:06.196Z,38.60
2018-12-17T07:05:34.703Z,38.40
2018-12-17T07:08:03.355Z,35.33
2018-12-17T07:10:31.890Z,36.73
2018-12-17T07:13:00.660Z,38.77
2018-12-17T07:15:29.239Z,35.93
2018-12-17T07:17:57.756Z,37.83
2018-12-17T07:20:26.296Z,37.83
2018-12-17T07:22:54.837Z,41.57
2018-12-17T07:25:23.320Z,39.27
2018-12-17T07:27:51.855Z,37.57
2018-12-17T07:30:20.719Z,41.90
2018-12-17T07:32:49.400Z,48.80
2018-12-17T07:35:17.951Z,43.83
2018-12-17T07:37:46.455Z,42.27
2018-12-17T07:40:15.116Z,44.87
2018-12-17T07:42:43.676Z,44.63
2018-12-17T07:45:12.224Z,50.23
2018-12-17T07:47:40.722Z,53.77
2018-12-17T07:50:09.458Z,66.77
2018-12-17T07:52:37.984Z,44.00
2018-12-17T07:55:06.646Z,54.50
2018-12-17T07:57:35.127Z,41.90
2018-12-17T08:00:05.218Z,58.63
2018-12-17T08:02:33.742Z,48.20
2018-12-17T08:05:02.258Z,48.77
2018-12-17T08:07:30.750Z,65.83
2018-12-17T08:09:59.284Z,48.20
2018-12-17T08:12:27.838Z,44.83
2018-12-17T08:14:56.352Z,40.13
2018-12-17T08:17:24.902Z,42.73
2018-12-17T08:19:53.602Z,37.60
2018-12-17T08:22:22.524Z,39.03
2018-12-17T08:24:51.048Z,45.37
2018-12-17T08:27:19.578Z,43.10
2018-12-17T08:29:48.070Z,53.57
2018-12-17T08:32:16.650Z,36.13
2018-12-17T08:34:45.154Z,39.40
2018-12-17T08:37:13.643Z,39.77
2018-12-17T08:39:42.186Z,41.50
2018-12-17T08:42:10.682Z,39.27
2018-12-17T08:44:39.213Z,42.07
2018-12-17T08:47:07.741Z,43.07
2018-12-17T08:49:36.215Z,43.00
2018-12-17T08:52:04.743Z,42.07
2018-12-17T08:54:33.230Z,42.27
2018-12-17T08:57:01.750Z,42.17
2018-12-17T08:59:30.252Z,46.53
2018-12-17T09:01:58.851Z,40.67
2018-12-17T09:04:27.330Z,48.73
2018-12-17T09:06:55.836Z,49.10
2018-12-17T09:09:24.317Z,43.90
2018-12-17T09:11:52.856Z,38.07
2018-12-17T09:14:21.363Z,39.63
2018-12-17T09:16:49.843Z,39.97
2018-12-17T09:19:18.379Z,40.47
2018-12-17T09:21:46.895Z,37.80
2018-12-17T09:24:15.587Z,35.73
2018-12-17T09:26:44.127Z,37.73
2018-12-17T09:29:12.655Z,37.13
2018-12-17T09:31:41.330Z,36.60
2018-12-17T09:34:09.894Z,36.43
2018-12-17T09:36:38.501Z,42.50
2018-12-17T09:39:08.186Z,43.00
2018-12-17T09:41:36.831Z,43.23
2018-12-17T09:44:05.379Z,45.90
2018-12-17T09:46:34.143Z,39.37
2018-12-17T09:49:02.958Z,38.93
2018-12-17T09:51:31.483Z,44.93
2018-12-17T09:54:00.007Z,44.73
2018-12-17T09:56:28.546Z,43.90
2018-12-17T09:58:57.098Z,37.47
2018-12-17T10:01:25.723Z,39.57
2018-12-17T10:03:54.279Z,38.87
2018-12-17T10:06:23.050Z,37.20
2018-12-17T10:08:51.510Z,39.57
2018-12-17T10:11:20.010Z,39.77
2018-12-17T10:13:48.501Z,36.80
2018-12-17T10:16:17.020Z,36.73
2018-12-17T10:18:45.554Z,39.40
2018-12-17T10:21:14.049Z,40.00
2018-12-17T10:23:42.978Z,40.37
2018-12-17T10:26:11.585Z,40.83
2018-12-17T10:28:40.076Z,40.07
2018-12-17T10:31:08.602Z,44.67
2018-12-17T10:33:37.132Z,43.10
2018-12-17T10:36:05.644Z,42.40
2018-12-17T10:38:34.174Z,43.37
2018-12-17T10:41:02.705Z,42.43
2018-12-17T10:43:31.238Z,44.53
2018-12-17T10:45:59.765Z,43.87
2018-12-17T10:48:28.301Z,42.10
2018-12-17T10:50:56.861Z,38.63
2018-12-17T10:53:25.409Z,43.57
2018-12-17T10:55:53.960Z,43.90
2018-12-17T10:58:22.476Z,44.07
2018-12-17T11:00:56.384Z,45.57
2018-12-17T11:03:32.329Z,45.00
2018-12-17T11:06:05.209Z,49.67
2018-12-17T11:08:33.709Z,50.33
2018-12-17T11:11:02.211Z,41.93
2018-12-17T11:13:30.719Z,64.60
2018-12-17T11:15:59.235Z,41.53
2018-12-17T11:18:27.751Z,35.57
2018-12-17T11:20:56.278Z,37.80
2018-12-17T11:23:26.082Z,36.27
2018-12-17T11:25:54.635Z,36.47
2018-12-17T11:28:23.147Z,35.87
2018-12-17T11:30:51.679Z,35.77
2018-12-17T11:33:20.223Z,37.93
2018-12-17T11:35:48.775Z,35.20
2018-12-17T11:38:32.098Z,39.63
2018-12-17T11:41:00.635Z,39.57
2018-12-17T11:43:29.131Z,38.37
2018-12-17T11:45:57.624Z,40.33
2018-12-17T11:48:26.356Z,40.97
2018-12-17T11:50:54.846Z,42.43
2018-12-17T11:53:23.339Z,47.67
2018-12-17T11:55:51.842Z,58.03
2018-12-17T11:58:20.336Z,40.47
2018-12-17T12:00:54.203Z,85.03
2018-12-17T12:03:22.854Z,75.73
2018-12-17T12:05:51.380Z,49.17
2018-12-17T12:08:19.851Z,59.87
2018-12-17T12:10:48.376Z,45.33
2018-12-17T12:13:17.024Z,37.20
2018-12-17T12:15:45.650Z,38.47
2018-12-17T12:18:14.840Z,39.33
2018-12-17T12:20:43.342Z,41.17
2018-12-17T12:23:11.822Z,39.30
2018-12-17T12:25:40.583Z,37.70
2018-12-17T12:28:09.116Z,40.17
2018-12-17T12:30:37.606Z,42.47
2018-12-17T12:33:06.155Z,41.83
2018-12-17T12:35:34.671Z,41.10
2018-12-17T12:38:03.186Z,41.17
2018-12-17T12:40:33.174Z,40.23
2018-12-17T12:43:01.919Z,39.30
2018-12-17T12:45:30.437Z,39.87
2018-12-17T12:47:58.925Z,39.23
2018-12-17T12:50:27.453Z,42.23
2018-12-17T12:52:55.955Z,42.03
2018-12-17T12:55:24.523Z,41.33
2018-12-17T12:57:53.042Z,40.30
2018-12-17T13:00:21.675Z,40.37
2018-12-17T13:02:50.177Z,40.80
2018-12-17T13:05:18.703Z,40.60
2018-12-17T13:07:47.233Z,43.13
2018-12-17T13:10:15.759Z,40.23
2018-12-17T13:12:44.254Z,44.13
2018-12-17T13:15:12.763Z,40.63
2018-12-17T13:17:43.045Z,51.33
2018-12-17T13:20:11.653Z,40.00
2018-12-17T13:22:40.161Z,35.93
2018-12-17T13:25:13.102Z,34.47
2018-12-17T13:27:41.631Z,34.17
2018-12-17T13:30:10.675Z,33.73
2018-12-17T13:32:39.190Z,34.70
2018-12-17T13:35:08.920Z,35.60
2018-12-17T13:37:37.422Z,35.07
2018-12-17T13:40:08.363Z,36.53
2018-12-17T13:42:36.875Z,35.37
2018-12-17T13:45:05.979Z,34.17
2018-12-17T13:47:34.475Z,33.27
2018-12-17T13:50:08.361Z,39.27
2018-12-17T13:52:42.314Z,40.53
2018-12-17T13:55:11.043Z,42.60
2018-12-17T13:57:39.533Z,44.40
2018-12-17T14:00:09.449Z,43.77
2018-12-17T14:02:37.945Z,41.77
2018-12-17T14:05:06.594Z,39.07
2018-12-17T14:07:35.106Z,40.17
2018-12-17T14:11:13.024Z,41.23
2018-12-17T14:13:41.534Z,37.27
2018-12-17T14:16:15.621Z,38.67
2018-12-17T14:18:50.901Z,41.33
2018-12-17T14:21:24.642Z,39.43
2018-12-17T14:23:53.130Z,37.70
2018-12-17T14:26:21.707Z,40.00
2018-12-17T14:28:50.252Z,48.53
2018-12-17T14:31:18.751Z,44.07
2018-12-17T14:33:47.282Z,41.10
2018-12-17T14:36:15.786Z,59.60
2018-12-17T14:38:44.274Z,50.93
2018-12-17T14:41:12.773Z,54.00
2018-12-17T14:43:41.257Z,46.27
2018-12-17T14:46:09.740Z,39.33
2018-12-17T14:48:38.239Z,39.07
2018-12-17T14:51:06.755Z,37.27
2018-12-17T14:53:35.387Z,39.50
2018-12-17T14:56:03.940Z,43.07
2018-12-17T14:58:32.685Z,38.63
2018-12-17T15:01:01.229Z,39.17
2018-12-17T15:03:29.707Z,38.90
2018-12-17T15:05:58.212Z,38.27
2018-12-17T15:08:26.743Z,40.00
2018-12-17T15:10:55.278Z,39.33
2018-12-17T15:13:23.783Z,40.73
2018-12-17T15:15:52.302Z,39.93
2018-12-17T15:18:20.850Z,40.87
2018-12-17T15:20:49.374Z,42.03
2018-12-17T15:23:17.890Z,40.37
2018-12-17T15:25:46.459Z,43.93
2018-12-17T15:28:15.092Z,43.27
2018-12-17T15:30:43.704Z,42.70
2018-12-17T15:33:12.327Z,55.17
2018-12-17T15:35:40.830Z,49.60
2018-12-17T15:38:09.346Z,49.87
2018-12-17T15:40:37.866Z,55.13
2018-12-17T15:43:06.361Z,51.63
2018-12-17T15:45:34.873Z,52.77
2018-12-17T15:48:03.364Z,56.17
2018-12-17T15:50:32.022Z,52.97
2018-12-17T15:53:00.561Z,55.77
2018-12-17T15:55:29.101Z,55.10
2018-12-17T15:57:57.617Z,56.17
2018-12-17T16:00:26.195Z,51.50
2018-12-17T16:02:54.710Z,51.93
2018-12-17T16:05:23.257Z,49.57
2018-12-17T16:07:51.793Z,51.30
2018-12-17T16:10:20.373Z,48.07
2018-12-17T16:12:48.921Z,47.17
2018-12-17T16:15:17.421Z,46.70
2018-12-17T16:17:46.000Z,47.43
2018-12-17T16:20:14.505Z,47.63
2018-12-17T16:22:43.056Z,43.00
2018-12-17T16:25:11.625Z,45.13
2018-12-17T16:27:40.159Z,43.60
2018-12-17T16:30:10.663Z,44.87
2018-12-17T16:32:39.184Z,44.57
2018-12-17T16:35:07.904Z,46.97
2018-12-17T16:37:36.429Z,43.93
2018-12-17T16:40:06.288Z,45.90
2018-12-17T16:42:34.791Z,47.83
2018-12-17T16:45:03.503Z,45.90
2018-12-17T16:47:32.479Z,47.07
2018-12-17T16:50:00.996Z,44.70
2018-12-17T16:52:29.483Z,45.30
2018-12-17T16:54:57.987Z,45.13
2018-12-17T16:57:26.482Z,52.77
2018-12-17T16:59:54.995Z,51.47
2018-12-17T17:02:23.529Z,50.10
2018-12-17T17:04:52.032Z,48.90
2018-12-17T17:07:20.596Z,47.97
2018-12-17T17:09:49.114Z,48.53
2018-12-17T17:12:17.647Z,51.43
2018-12-17T17:14:46.153Z,46.00
2018-12-17T17:17:14.687Z,44.87
2018-12-17T17:19:43.231Z,44.27
2018-12-17T17:22:11.723Z,48.17
2018-12-17T17:24:40.273Z,47.20
2018-12-17T17:27:08.791Z,49.10
2018-12-17T17:29:37.309Z,48.33
2018-12-17T17:32:11.551Z,48.80
2018-12-17T17:34:36.388Z,46.90
2018-12-17T17:37:04.907Z,45.63
2018-12-17T17:39:33.447Z,46.63
2018-12-17T17:42:02.091Z,46.17
2018-12-17T17:44:30.607Z,49.27
2018-12-17T17:46:59.183Z,48.30
2018-12-17T17:49:27.747Z,47.33
2018-12-17T17:51:56.307Z,54.43
2018-12-17T17:54:24.851Z,53.47
2018-12-17T17:56:53.403Z,49.23
2018-12-17T17:59:21.975Z,51.97
2018-12-17T18:01:50.515Z,85.90
2018-12-17T18:04:19.071Z,87.90
2018-12-17T18:06:47.732Z,102.37
2018-12-17T18:09:16.258Z,87.13
2018-12-17T18:11:44.823Z,59.27
2018-12-17T18:14:13.364Z,49.93
2018-12-17T18:16:41.883Z,46.33
2018-12-17T18:19:10.419Z,45.53
2018-12-17T18:21:38.955Z,48.47
2018-12-17T18:24:07.442Z,48.70
2018-12-17T18:26:35.975Z,51.57
2018-12-17T18:29:04.587Z,53.03
2018-12-17T18:31:33.127Z,50.70
2018-12-17T18:34:01.657Z,51.50
2018-12-17T18:36:30.270Z,51.83
2018-12-17T18:38:59.690Z,46.80
2018-12-17T18:41:28.455Z,46.97
2018-12-17T18:43:56.979Z,49.17
2018-12-17T18:46:25.489Z,47.63
2018-12-17T18:48:54.102Z,51.50
2018-12-17T18:51:22.638Z,55.50
2018-12-17T18:53:51.923Z,66.47
2018-12-17T18:56:20.446Z,71.73
2018-12-17T18:58:48.989Z,71.17
2018-12-17T19:01:17.526Z,67.40
2018-12-17T19:03:46.094Z,65.90
2018-12-17T19:06:14.790Z,64.83
2018-12-17T19:08:43.334Z,60.67
2018-12-17T19:11:12.089Z,61.77
2018-12-17T19:13:40.621Z,87.87
2018-12-17T19:16:09.177Z,75.10
2018-12-17T19:18:37.697Z,67.30
2018-12-17T19:21:06.227Z,65.43
2018-12-17T19:23:34.768Z,56.77
2018-12-17T19:26:03.315Z,54.63
2018-12-17T19:28:31.850Z,51.27
2018-12-17T19:31:00.361Z,49.60
2018-12-17T19:33:28.916Z,44.50
2018-12-17T19:35:57.415Z,45.63
2018-12-17T19:38:25.932Z,47.70
2018-12-17T19:40:54.476Z,44.90
2018-12-17T19:43:23.257Z,48.67
2018-12-17T19:45:51.801Z,46.13
2018-12-17T19:48:20.340Z,48.17
2018-12-17T19:50:48.885Z,49.60
2018-12-17T19:53:17.460Z,46.60
2018-12-17T19:55:45.986Z,54.20
2018-12-17T19:58:14.516Z,48.93
2018-12-17T20:00:43.088Z,50.00
2018-12-17T20:03:11.903Z,50.27
2018-12-17T20:05:41.312Z,49.97
2018-12-17T20:08:09.888Z,48.20
2018-12-17T20:10:38.450Z,49.33
2018-12-17T20:13:06.979Z,52.60
2018-12-17T20:15:35.564Z,54.53
2018-12-17T20:18:04.405Z,52.80
2018-12-17T20:20:33.011Z,52.53
2018-12-17T20:23:01.582Z,58.20
2018-12-17T20:25:30.161Z,133.33
2018-12-17T20:27:58.721Z,178.60
2018-12-17T20:30:27.265Z,125.63
2018-12-17T20:32:55.869Z,123.07
2018-12-17T20:35:24.453Z,120.10
2018-12-17T20:37:53.121Z,126.37
2018-12-17T20:40:21.689Z,134.63
2018-12-17T20:42:50.214Z,137.87
2018-12-17T20:45:18.778Z,120.67
2018-12-17T20:47:47.325Z,122.27
2018-12-17T20:50:15.894Z,116.87
2018-12-17T20:52:44.441Z,115.57
2018-12-17T20:55:13.232Z,104.13
2018-12-17T20:57:41.784Z,101.90
2018-12-17T21:00:10.567Z,102.37
2018-12-17T21:02:39.108Z,93.77
2018-12-17T21:05:07.780Z,78.73
2018-12-17T21:07:36.320Z,77.03
2018-12-17T21:10:10.672Z,71.83
2018-12-17T21:12:39.244Z,68.33
2018-12-17T21:15:08.016Z,69.93
2018-12-17T21:17:36.529Z,68.43
2018-12-17T21:20:05.397Z,80.50
2018-12-17T21:22:33.897Z,71.30
2018-12-17T21:25:02.747Z,68.73
2018-12-17T21:27:33.388Z,70.43
2018-12-17T21:30:01.912Z,72.50
2018-12-17T21:32:30.459Z,70.00
2018-12-17T21:34:58.995Z,73.07
2018-12-17T21:37:28.231Z,71.17
2018-12-17T21:39:56.780Z,74.27
2018-12-17T21:42:25.267Z,74.00
2018-12-17T21:44:53.771Z,75.40
2018-12-17T21:47:22.303Z,73.10
2018-12-17T21:49:50.823Z,74.47
2018-12-17T21:52:19.347Z,67.80
2018-12-17T21:54:47.843Z,66.53
2018-12-17T21:57:16.361Z,72.40
2018-12-17T21:59:44.876Z,70.60
2018-12-17T22:02:13.403Z,67.47
2018-12-17T22:04:41.907Z,64.23
2018-12-17T22:07:10.418Z,62.80
2018-12-17T22:09:39.003Z,63.47
2018-12-17T22:12:07.591Z,62.40
2018-12-17T22:14:36.167Z,70.90
2018-12-17T22:17:04.732Z,76.83
2018-12-17T22:19:33.282Z,99.17
2018-12-17T22:22:01.846Z,98.57
2018-12-17T22:24:30.406Z,88.17
2018-12-17T22:26:58.978Z,92.73
2018-12-17T22:49:36.157Z,61.67
